Time;durP1;ratioP1;P1;durP2;ratioP2;P2;SDS_P1;SDS_P2;PMS_P1;PMS_P2;Temp;Humidity;BMP_temperature;BMP_pressure;BME280_temperature;BME280_humidity;BME280_pressure;Samples;Min_cycle;Max_cycle;Signal;HPM_P1;HPM_P2
2021/04/23 00:01:19;;;;;;;;;;;307.60;2150.40;;;;;;5071149;28;20021;-77
2021/04/23 00:04:03;;;;;;;51.63;25.50;;;307.60;2124.80;;;;;;5071686;28;19915;-77
2021/04/23 00:06:40;;;;;;;34.28;21.23;;;307.40;2150.40;;;;;;5074359;28;20053;-77
2021/04/23 00:09:08;;;;;;;34.28;21.60;;;307.50;2150.40;;;;;;5076991;28;20033;-77
2021/04/23 00:11:45;;;;;;;36.60;24.17;;;307.50;2150.40;;;;;;5080812;28;20091;-77
2021/04/23 00:14:13;;;;;;;37.33;23.63;;;307.70;2099.20;;;;;;5077183;28;20099;-77
2021/04/23 00:16:40;;;;;;;35.28;23.20;;;307.80;2099.20;;;;;;5073175;28;20024;-77
2021/04/23 00:19:13;;;;;;;34.83;23.05;;;307.80;2099.20;;;;;;5077652;28;20021;-77
2021/04/23 00:21:40;;;;;;;35.28;24.27;;;307.80;2073.60;;;;;;5073793;28;20089;-77
2021/04/23 00:24:06;;;;;;;36.63;24.25;;;307.90;2073.60;;;;;;5082611;28;20062;-78
2021/04/23 00:26:33;;;;;;;37.13;24.35;;;307.90;2073.60;;;;;;5078702;28;20380;-77
2021/04/23 00:28:59;;;;;;;35.92;24.27;;;307.90;2073.60;;;;;;5088450;28;20514;-76
2021/04/23 00:31:25;;;;;;;41.80;26.42;;;307.90;2099.20;;;;;;5076864;28;20020;-76
2021/04/23 00:33:51;;;;;;;35.25;24.15;;;308.10;2073.60;;;;;;5079140;28;20055;-78
2021/04/23 00:36:17;;;;;;;35.17;25.10;;;308.10;2073.60;;;;;;5084954;28;20342;-78
2021/04/23 00:38:43;;;;;;;39.80;27.42;;;308.00;2099.20;;;;;;5090325;28;20468;-78
2021/04/23 00:41:15;;;;;;;43.10;26.45;;;308.00;2099.20;;;;;;5081807;28;20020;-78
2021/04/23 00:43:44;;;;;;;42.13;28.08;;;308.10;2099.20;;;;;;5076375;28;20503;-78
2021/04/23 00:46:11;;;;;;;37.90;26.85;;;307.90;2099.20;;;;;;5072510;28;20039;-78
2021/04/23 00:48:46;;;;;;;39.00;26.50;;;307.80;2099.20;;;;;;5086891;28;20039;-79
2021/04/23 00:51:15;;;;;;;39.15;24.58;;;307.90;2099.20;;;;;;5088327;28;20024;-78
2021/04/23 00:53:47;;;;;;;34.53;24.58;;;308.00;2099.20;;;;;;5091543;28;20028;-78
2021/04/23 00:56:16;;;;;;;36.78;25.50;;;307.80;2124.80;;;;;;5091364;28;20099;-78
2021/04/23 00:58:43;;;;;;;39.67;27.25;;;307.90;2099.20;;;;;;5091134;28;20036;-78
2021/04/23 01:01:13;;;;;;;49.72;29.10;;;308.00;2099.20;;;;;;5091191;28;20046;-78
2021/04/23 01:03:39;;;;;;;45.17;26.73;;;308.10;2099.20;;;;;;5089589;28;20032;-78
2021/04/23 01:06:15;;;;;;;36.88;24.25;;;332.90;2099.20;;;;;;5090599;28;20038;-79
2021/04/23 01:08:42;;;;;;;38.72;25.30;;;333.00;2073.60;;;;;;5093183;28;20387;-77
2021/04/23 01:11:09;;;;;;;43.45;26.55;;;333.00;2073.60;;;;;;5093639;28;20067;-78
2021/04/23 01:13:35;;;;;;;35.47;24.42;;;332.80;2073.60;;;;;;5094732;28;20016;-79
2021/04/23 01:16:07;;;;;;;33.63;23.55;;;332.80;2048.00;;;;;;5093218;28;20056;-79
2021/04/23 01:18:35;;;;;;;35.95;23.88;;;332.90;2022.40;;;;;;5094776;28;20054;-79
2021/04/23 01:21:04;;;;;;;35.08;23.05;;;332.90;2022.40;;;;;;5090759;28;20028;-78
2021/04/23 01:23:30;;;;;;;34.17;23.60;;;332.90;2022.40;;;;;;5095002;28;20111;-78
2021/04/23 01:25:56;;;;;;;31.95;22.52;;;333.00;2022.40;;;;;;5093402;28;20024;-78
2021/04/23 01:28:22;;;;;;;37.97;23.30;;;333.00;1996.80;;;;;;5093492;28;20032;-78
2021/04/23 01:30:48;;;;;;;38.22;22.60;;;332.90;1971.20;;;;;;5094606;28;20031;-78
2021/04/23 01:33:14;;;;;;;36.80;24.15;;;332.90;1996.80;;;;;;5093509;28;20020;-77
2021/04/23 01:35:40;;;;;;;39.97;24.58;;;332.80;1996.80;;;;;;5093200;28;20031;-78
2021/04/23 01:38:06;;;;;;;38.28;23.35;;;332.90;1996.80;;;;;;5094561;28;20024;-78
2021/04/23 01:40:32;;;;;;;37.13;23.73;;;308.10;1971.20;;;;;;5093286;28;20029;-78
2021/04/23 01:42:58;;;;;;;36.95;23.63;;;332.90;1971.20;;;;;;5094131;28;20051;-78
2021/04/23 01:45:24;;;;;;;33.00;23.23;;;332.80;1996.80;;;;;;5086305;28;20032;-78
2021/04/23 01:47:49;;;;;;;31.15;22.00;;;308.10;1971.20;;;;;;5083261;28;20107;-77
2021/04/23 01:50:19;;;;;;;;;;;308.00;2022.40;;;;;;5083204;28;20025;-78
2021/04/23 01:52:47;;;;;;;23.70;16.35;;;307.80;1996.80;;;;;;5078606;28;19924;-78
2021/04/23 01:55:16;;;;;;;21.48;14.35;;;307.80;1971.20;;;;;;5087779;28;20103;-78
2021/04/23 01:57:42;;;;;;;19.75;12.93;;;307.80;1945.60;;;;;;5080764;28;20028;-77
2021/04/23 02:00:12;;;;;;;22.73;13.20;;;307.80;1920.00;;;;;;5093669;28;20055;-77
2021/04/23 02:02:38;;;;;;;19.75;12.88;;;307.80;1996.80;;;;;;5092228;28;20524;-78
2021/04/23 02:05:05;;;;;;;18.65;12.02;;;307.80;2048.00;;;;;;5090106;28;20135;-78
2021/04/23 02:07:31;;;;;;;21.10;11.35;;;307.80;2022.40;;;;;;5087621;28;20024;-78
2021/04/23 02:09:57;;;;;;;16.70;11.32;;;307.90;2022.40;;;;;;5080740;28;20119;-78
2021/04/23 02:12:24;;;;;;;15.98;12.15;;;307.70;2048.00;;;;;;5091959;28;20472;-78
2021/04/23 02:14:49;;;;;;;19.70;13.68;;;307.60;2048.00;;;;;;5080186;28;20039;-78
2021/04/23 02:17:17;;;;;;;21.23;12.82;;;307.70;2048.00;;;;;;5089540;28;20383;-78
2021/04/23 02:19:43;;;;;;;22.63;13.90;;;307.80;2048.00;;;;;;5089185;28;20028;-77
2021/04/23 02:22:09;;;;;;;24.60;15.30;;;307.80;2048.00;;;;;;5093230;28;20016;-78
2021/04/23 02:24:35;;;;;;;23.42;14.55;;;308.00;2022.40;;;;;;5088907;28;20480;-76
2021/04/23 02:27:01;;;;;;;21.83;14.90;;;308.10;1971.20;;;;;;5090318;28;20070;-77
2021/04/23 02:29:27;;;;;;;;;;;308.10;1971.20;;;;;;5085595;28;20032;-78
2021/04/23 02:31:54;;;;;;;23.95;16.10;;;308.10;1971.20;;;;;;5091659;28;20355;-78
2021/04/23 02:34:24;;;;;;;28.83;18.27;;;308.10;1971.20;;;;;;5080233;28;20018;-78
2021/04/23 02:36:50;;;;;;;28.17;18.30;;;307.80;2022.40;;;;;;5078661;28;20078;-78
2021/04/23 02:39:19;;;;;;;27.85;18.42;;;307.90;2048.00;;;;;;5076105;28;20024;-78
2021/04/23 02:41:46;;;;;;;36.35;20.65;;;308.00;2022.40;;;;;;5083837;28;20361;-78
2021/04/23 02:44:13;;;;;;;29.70;19.10;;;308.00;2022.40;;;;;;5080815;28;20145;-76
2021/04/23 02:46:41;;;;;;;30.77;19.25;;;308.10;1996.80;;;;;;5077853;28;20032;-76
2021/04/23 02:49:07;;;;;;;30.73;18.65;;;308.10;1971.20;;;;;;5092807;28;20088;-77
2021/04/23 02:51:37;;;;;;;25.52;17.60;;;308.00;1971.20;;;;;;5093143;28;20020;-77
2021/04/23 02:54:04;;;;;;;28.70;19.75;;;307.80;1996.80;;;;;;5092932;28;20480;-77
2021/04/23 02:56:31;;;;;;;29.20;19.13;;;308.00;1971.20;;;;;;5080863;28;20051;-78
2021/04/23 02:58:57;;;;;;;30.98;20.70;;;308.00;1971.20;;;;;;5080102;28;20067;-77
2021/04/23 03:01:29;;;;;;;30.55;20.42;;;308.10;1971.20;;;;;;5084210;28;20091;-78
2021/04/23 03:03:55;;;;;;;34.00;21.45;;;308.00;1996.80;;;;;;5088464;28;20103;-78
2021/04/23 03:06:21;;;;;;;34.10;21.75;;;307.90;2022.40;;;;;;5091895;28;20454;-77
2021/04/23 03:08:48;;;;;;;36.03;22.45;;;307.80;2073.60;;;;;;5090688;28;20031;-77
2021/04/23 03:11:17;;;;;;;32.33;20.35;;;307.90;2048.00;;;;;;5092139;28;20050;-77
2021/04/23 03:13:49;;;;;;;31.45;21.92;;;307.90;2048.00;;;;;;5091439;28;20042;-78
2021/04/23 03:16:16;;;;;;;30.40;20.60;;;307.90;2048.00;;;;;;5086686;28;20467;-77
2021/04/23 03:18:43;;;;;;;43.25;22.75;;;307.90;2048.00;;;;;;5089783;28;20063;-77
2021/04/23 03:21:10;;;;;;;31.50;21.00;;;307.80;2048.00;;;;;;5080789;28;20020;-77
2021/04/23 03:23:38;;;;;;;29.05;19.17;;;307.50;2048.00;;;;;;5090086;28;20020;-77
2021/04/23 03:26:06;;;;;;;31.83;19.20;;;307.30;2048.00;;;;;;5078702;28;20488;-77
2021/04/23 03:28:33;;;;;;;29.98;18.75;;;307.30;2048.00;;;;;;5069753;28;20102;-77
2021/04/23 03:31:00;;;;;;;27.33;16.73;;;307.20;2022.40;;;;;;5088440;28;20050;-77
2021/04/23 03:33:26;;;;;;;22.10;15.15;;;282.50;1996.80;;;;;;5072890;28;20016;-77
2021/04/23 03:35:54;;;;;;;28.95;14.15;;;307.20;1971.20;;;;;;5074666;28;20027;-77
2021/04/23 03:38:21;;;;;;;26.30;15.90;;;307.30;1945.60;;;;;;5071412;28;20021;-78
2021/04/23 03:40:48;;;;;;;23.75;15.57;;;307.50;1945.60;;;;;;5077085;28;20044;-78
2021/04/23 03:43:15;;;;;;;26.88;15.45;;;307.50;1920.00;;;;;;5076630;28;20032;-77
2021/04/23 03:45:40;;;;;;;24.08;15.65;;;307.60;1894.40;;;;;;5078937;28;20065;-77
2021/04/23 03:48:07;;;;;;;22.55;14.43;;;307.70;1894.40;;;;;;5077617;28;20035;-78
2021/04/23 03:50:35;;;;;;;22.75;14.77;;;307.70;1920.00;;;;;;5090137;28;20169;-78
2021/04/23 03:53:04;;;;;;;24.63;14.70;;;307.50;1945.60;;;;;;5077801;28;20017;-78
2021/04/23 03:55:33;;;;;;;20.98;14.45;;;307.60;1945.60;;;;;;5081384;28;20032;-78
2021/04/23 03:58:01;;;;;;;21.00;14.80;;;307.80;1920.00;;;;;;5089479;28;20032;-78
2021/04/23 04:00:43;;;;;;;22.77;13.80;;;307.60;1945.60;;;;;;5081736;28;20460;-78
2021/04/23 04:03:10;;;;;;;20.85;13.43;;;307.60;1920.00;;;;;;5074652;28;20029;-77
2021/04/23 04:05:36;;;;;;;21.85;13.85;;;307.70;1894.40;;;;;;5074374;28;20012;-78
2021/04/23 04:08:05;;;;;;;27.02;14.50;;;307.60;1920.00;;;;;;5080844;28;20379;-77
2021/04/23 04:10:31;;;;;;;24.98;13.27;;;307.60;1920.00;;;;;;5076555;28;20031;-78
2021/04/23 04:12:57;;;;;;;23.52;13.43;;;307.30;1920.00;;;;;;5075152;28;20023;-77
2021/04/23 04:15:27;;;;;;;23.17;13.65;;;307.40;1920.00;;;;;;5079734;28;20119;-78
2021/04/23 04:17:54;;;;;;;22.77;14.90;;;307.50;1920.00;;;;;;5072230;28;20075;-77
2021/04/23 04:20:20;;;;;;;22.67;13.73;;;307.20;1920.00;;;;;;5077229;28;20365;-77
2021/04/23 04:22:46;;;;;;;27.80;13.30;;;307.20;1920.00;;;;;;5086033;28;20107;-78
2021/04/23 04:25:27;;;;;;;22.52;12.32;;;282.50;1894.40;;;;;;5081263;28;20171;-78
2021/04/23 04:27:53;;;;;;;21.15;13.38;;;307.30;1868.80;;;;;;5084991;28;20044;-78
2021/04/23 04:30:19;;;;;;;22.00;13.57;;;307.30;1894.40;;;;;;5070852;28;20059;-78
2021/04/23 04:32:46;;;;;;;21.85;14.48;;;307.50;1894.40;;;;;;5078468;28;20077;-77
2021/04/23 04:35:12;;;;;;;22.13;14.63;;;307.50;1920.00;;;;;;5076444;28;20103;-77
2021/04/23 04:37:38;;;;;;;23.38;14.70;;;307.60;1894.40;;;;;;5088003;28;20395;-78
2021/04/23 04:40:06;;;;;;;25.75;15.52;;;307.40;1971.20;;;;;;5083964;28;20016;-78
2021/04/23 04:42:32;;;;;;;22.35;13.90;;;307.30;1945.60;;;;;;5081214;28;20021;-79
2021/04/23 04:45:01;;;;;;;29.88;16.63;;;307.30;1971.20;;;;;;5080890;28;20031;-78
2021/04/23 04:47:29;;;;;;;28.65;19.15;;;307.30;1945.60;;;;;;5089403;28;20020;-77
2021/04/23 04:49:55;;;;;;;33.45;21.42;;;307.30;1971.20;;;;;;5081579;28;20032;-77
2021/04/23 04:52:21;;;;;;;42.00;21.70;;;307.30;1945.60;;;;;;5087974;28;20012;-78
2021/04/23 04:54:46;;;;;;;34.13;18.67;;;307.50;1920.00;;;;;;5075352;28;20025;-78
2021/04/23 04:57:14;;;;;;;35.13;19.45;;;307.40;1945.60;;;;;;5088772;28;20024;-77
2021/04/23 04:59:45;;;;;;;26.33;16.40;;;307.50;1920.00;;;;;;5082240;28;20542;-79
2021/04/23 05:02:11;;;;;;;24.83;14.02;;;307.60;1894.40;;;;;;5094723;28;20023;-78
2021/04/23 05:04:37;;;;;;;26.42;15.13;;;307.60;1868.80;;;;;;5085682;28;20109;-77
2021/04/23 05:07:03;;;;;;;28.13;14.93;;;307.60;1894.40;;;;;;5086056;28;20436;-77
2021/04/23 05:09:28;;;;;;;28.42;16.92;;;307.60;1894.40;;;;;;5088683;28;20093;-76
2021/04/23 05:11:54;;;;;;;;;;;307.60;1894.40;;;;;;5083594;28;20484;-76
2021/04/23 05:14:20;;;;;;;30.33;16.83;;;307.60;1920.00;;;;;;5084692;28;19920;-76
2021/04/23 05:16:46;;;;;;;;;;;307.40;1945.60;;;;;;5080338;28;20497;-76
2021/04/23 05:19:11;;;;;;;31.50;15.27;;;307.60;1894.40;;;;;;5090146;28;19985;-76
2021/04/23 05:21:38;;;;;;;28.58;15.60;;;307.60;1894.40;;;;;;5085139;28;20048;-78
2021/04/23 05:24:04;;;;;;;31.35;17.15;;;307.50;1894.40;;;;;;5083238;28;20111;-76
2021/04/23 05:26:30;;;;;;;33.95;18.55;;;307.50;1868.80;;;;;;5084571;28;20055;-75
2021/04/23 05:28:55;;;;;;;31.92;15.77;;;307.40;1920.00;;;;;;5079643;28;20082;-76
2021/04/23 05:31:21;;;;;;;27.35;16.02;;;307.40;1920.00;;;;;;5075534;28;20112;-76
2021/04/23 05:33:47;;;;;;;33.45;16.33;;;307.30;1920.00;;;;;;5075645;28;20053;-76
2021/04/23 05:36:13;;;;;;;27.13;13.55;;;307.20;1945.60;;;;;;5077589;28;20067;-77
2021/04/23 05:38:39;;;;;;;;;;;307.20;1920.00;;;;;;5091027;28;20035;-77
2021/04/23 05:41:05;;;;;;;27.98;14.73;;;307.50;1894.40;;;;;;5079997;28;19904;-76
2021/04/23 05:43:30;;;;;;;;;;;307.50;1894.40;;;;;;5094750;28;20034;-76
2021/04/23 05:45:56;;;;;;;24.90;14.00;;;307.60;1894.40;;;;;;5094032;28;20314;-76
2021/04/23 05:48:21;;;;;;;;;;;307.70;1920.00;;;;;;5093320;28;20099;-77
2021/04/23 05:50:48;;;;;;;31.70;17.05;;;307.60;1894.40;;;;;;5092829;28;20045;-76
2021/04/23 05:53:14;;;;;;;33.47;17.95;;;307.60;1920.00;;;;;;5092131;28;20055;-76
2021/04/23 05:55:40;;;;;;;31.90;17.92;;;307.60;1920.00;;;;;;5089164;28;20016;-76
2021/04/23 05:58:07;;;;;;;32.58;17.05;;;307.80;1894.40;;;;;;5082394;28;20525;-77
2021/04/23 06:00:35;;;;;;;30.20;16.33;;;307.40;1868.80;;;;;;5088928;28;20036;-76
2021/04/23 06:03:03;;;;;;;30.67;17.10;;;307.20;1920.00;;;;;;5073561;28;20013;-75
2021/04/23 06:05:30;;;;;;;27.92;16.80;;;282.50;1920.00;;;;;;5092267;28;20020;-76
2021/04/23 06:08:08;;;;;;;35.58;19.00;;;307.30;1920.00;;;;;;5093809;28;20483;-77
2021/04/23 06:10:34;;;;;;;27.98;16.33;;;307.30;1945.60;;;;;;5093655;28;20031;-75
2021/04/23 06:13:01;;;;;;;30.55;17.30;;;307.40;1945.60;;;;;;5083739;28;20029;-74
2021/04/23 06:15:28;;;;;;;30.58;16.23;;;307.50;1945.60;;;;;;5073267;28;20029;-75
2021/04/23 06:17:55;;;;;;;36.17;19.17;;;307.60;1894.40;;;;;;5073630;28;20060;-74
2021/04/23 06:20:28;;;;;;;25.92;15.82;;;307.60;1945.60;;;;;;5073257;28;20021;-77
2021/04/23 06:22:55;;;;;;;32.78;15.35;;;307.80;1894.40;;;;;;5073322;28;20043;-74
2021/04/23 06:25:22;;;;;;;34.47;16.77;;;307.70;1843.20;;;;;;5093058;28;20125;-74
2021/04/23 06:27:50;;;;;;;30.23;14.82;;;307.60;1920.00;;;;;;5093577;28;20028;-76
2021/04/23 06:30:26;;;;;;;23.67;11.93;;;307.90;1843.20;;;;;;5091922;28;20119;-75
2021/04/23 06:32:52;;;;;;;25.15;12.55;;;307.80;1715.20;;;;;;5091869;28;20514;-75
2021/04/23 06:35:21;;;;;;;26.48;11.20;;;307.80;1638.40;;;;;;5093418;28;20016;-76
2021/04/23 06:37:48;;;;;;;24.13;11.63;;;307.70;1638.40;;;;;;5093268;28;20047;-74
2021/04/23 06:40:16;;;;;;;27.73;12.63;;;307.80;1664.00;;;;;;5093318;28;20024;-74
2021/04/23 06:42:42;;;;;;;19.92;10.00;;;307.80;1664.00;;;;;;5091796;28;20031;-75
2021/04/23 06:45:11;;;;;;;21.92;9.43;;;307.80;1612.80;;;;;;5091936;28;20493;-75
2021/04/23 06:47:37;;;;;;;17.73;9.15;;;307.80;1536.00;;;;;;5093314;28;20417;-76
2021/04/23 06:50:07;;;;;;;21.55;9.90;;;308.00;1510.40;;;;;;5092822;28;20032;-76
2021/04/23 06:52:33;;;;;;;19.02;8.00;;;332.80;1561.60;;;;;;5093061;28;20050;-75
2021/04/23 06:55:00;;;;;;;20.52;8.18;;;332.80;1484.80;;;;;;5091495;28;20067;-75
2021/04/23 06:57:26;;;;;;;19.42;9.32;;;333.20;1484.80;;;;;;5091758;28;20051;-75
2021/04/23 06:59:52;;;;;;;24.13;9.52;;;333.10;1484.80;;;;;;5092454;28;20440;-75
2021/04/23 07:02:18;;;;;;;26.35;8.05;;;333.20;1408.00;;;;;;5092932;28;20126;-75
2021/04/23 07:04:43;;;;;;;17.42;7.82;;;333.10;1433.60;;;;;;5077293;28;20021;-74
2021/04/23 07:07:09;;;;;;;23.77;10.55;;;332.90;1433.60;;;;;;5072665;28;20039;-77
2021/04/23 07:09:35;;;;;;;14.60;8.10;;;308.00;1484.80;;;;;;5072388;28;20032;-78
2021/04/23 07:12:02;;;;;;;22.90;8.23;;;308.00;1459.20;;;;;;5072185;28;20066;-76
2021/04/23 07:14:28;;;;;;;20.17;8.65;;;308.10;1408.00;;;;;;5080695;28;20026;-76
2021/04/23 07:16:54;;;;;;;14.98;7.97;;;332.90;1433.60;;;;;;5091013;28;20103;-76
2021/04/23 07:19:20;;;;;;;16.27;8.77;;;333.30;1382.40;;;;;;5092634;28;20107;-75
2021/04/23 07:21:46;;;;;;;15.73;7.63;;;333.40;1408.00;;;;;;5092407;28;20028;-75
2021/04/23 07:24:12;;;;;;;17.10;7.82;;;333.40;1408.00;;;;;;5092715;28;20020;-75
2021/04/23 07:26:37;;;;;;;19.95;8.57;;;333.30;1408.00;;;;;;5092373;28;20039;-74
2021/04/23 07:29:04;;;;;;;17.30;8.80;;;333.40;1331.20;;;;;;5090836;28;20043;-75
2021/04/23 07:31:29;;;;;;;17.52;8.10;;;333.50;1331.20;;;;;;5090776;28;20055;-76
2021/04/23 07:33:56;;;;;;;23.20;7.88;;;333.70;1305.60;;;;;;5092301;28;20468;-75
2021/04/23 07:36:23;;;;;;;23.42;8.50;;;358.50;1305.60;;;;;;5092144;28;20020;-75
2021/04/23 07:38:48;;;;;;;20.48;8.60;;;358.40;1280.00;;;;;;5092047;28;20039;-77
2021/04/23 07:41:14;;;;;;;25.80;8.40;;;358.60;1254.40;;;;;;5092155;28;20020;-78
2021/04/23 07:43:40;;;;;;;18.88;8.45;;;358.60;1228.80;;;;;;5090792;28;20502;-75
2021/04/23 07:46:06;;;;;;;26.02;9.98;;;358.60;1254.40;;;;;;5090836;28;20112;-77
2021/04/23 07:48:32;;;;;;;18.25;8.90;;;358.70;1228.80;;;;;;5091177;28;20024;-76
2021/04/23 07:50:58;;;;;;;20.17;8.20;;;358.80;1203.20;;;;;;5091577;28;20024;-77
2021/04/23 07:53:23;;;;;;;23.00;10.40;;;358.70;1254.40;;;;;;5090036;28;20053;-76
2021/04/23 07:55:49;;;;;;;19.77;7.65;;;358.90;1254.40;;;;;;5089619;28;20053;-76
2021/04/23 07:58:15;;;;;;;25.75;7.95;;;358.90;1152.00;;;;;;5090994;28;20097;-75
2021/04/23 08:00:41;;;;;;;13.95;5.47;;;358.90;1152.00;;;;;;5091750;28;20036;-80
2021/04/23 08:03:07;;;;;;;16.83;7.10;;;359.10;1075.20;;;;;;5090278;28;20468;-75
2021/04/23 08:05:36;;;;;;;13.68;6.47;;;359.00;1126.40;;;;;;5090034;28;20043;-78
2021/04/23 08:08:03;;;;;;;20.13;7.68;;;359.10;1075.20;;;;;;5090526;28;20102;-81
2021/04/23 08:10:30;;;;;;;9.50;5.20;;;359.10;1100.80;;;;;;5091622;28;20487;-79
2021/04/23 08:12:56;;;;;;;20.25;6.95;;;359.20;1049.60;;;;;;5091910;28;20099;-77
2021/04/23 08:15:24;;;;;;;20.80;8.02;;;359.20;1100.80;;;;;;5093021;28;20103;-77
2021/04/23 08:17:50;;;;;;;20.38;6.68;;;359.30;1075.20;;;;;;5094518;28;20040;-80
2021/04/23 08:20:16;;;;;;;19.52;8.18;;;384.10;1075.20;;;;;;5095824;28;20024;-77
2021/04/23 08:22:43;;;;;;;16.88;7.47;;;384.10;1100.80;;;;;;5094766;28;20024;-78
2021/04/23 08:25:10;;;;;;;17.83;6.82;;;384.20;1075.20;;;;;;5095757;28;20043;-78
2021/04/23 08:27:36;;;;;;;16.50;8.18;;;384.20;1049.60;;;;;;5095563;28;20475;-77
2021/04/23 08:30:05;;;;;;;18.50;8.60;;;384.40;1152.00;;;;;;5095660;28;20035;-79
2021/04/23 08:32:31;;;;;;;17.88;8.18;;;384.40;1100.80;;;;;;5095107;28;20027;-76
2021/04/23 08:34:57;;;;;;;20.48;7.93;;;384.50;1100.80;;;;;;5095218;28;20102;-76
2021/04/23 08:37:23;;;;;;;17.85;9.07;;;384.50;1075.20;;;;;;5093871;28;20158;-76
2021/04/23 08:39:48;;;;;;;22.90;9.25;;;384.30;1126.40;;;;;;5095627;28;20102;-76
2021/04/23 08:42:14;;;;;;;20.88;9.55;;;384.40;1177.60;;;;;;5095529;28;20414;-83
2021/04/23 08:44:41;;;;;;;20.77;10.52;;;384.10;1152.00;;;;;;5095058;28;20040;-81
2021/04/23 08:47:08;;;;;;;21.10;10.60;;;384.40;1100.80;;;;;;5094212;28;20013;-81
2021/04/23 08:49:36;;;;;;;18.88;8.65;;;384.50;1152.00;;;;;;5094064;28;20123;-82
2021/04/23 08:52:03;;;;;;;20.00;8.70;;;384.20;1126.40;;;;;;5094620;28;20060;-80
2021/04/23 08:54:29;;;;;;;22.60;9.30;;;384.10;1152.00;;;;;;5093161;28;20023;-74
2021/04/23 08:56:55;;;;;;;15.15;7.85;;;384.10;1152.00;;;;;;5095103;28;20372;-77
2021/04/23 08:59:21;;;;;;;22.73;9.38;;;384.30;1126.40;;;;;;5094477;28;20056;-77
2021/04/23 09:01:47;;;;;;;25.63;8.68;;;384.50;1152.00;;;;;;5095104;28;20094;-77
2021/04/23 09:04:12;;;;;;;22.13;9.18;;;384.50;1126.40;;;;;;5091326;28;20475;-77
2021/04/23 09:06:39;;;;;;;17.00;8.88;;;384.60;1100.80;;;;;;5093209;28;20040;-76
2021/04/23 09:09:08;;;;;;;18.63;8.95;;;384.50;1126.40;;;;;;5093235;28;20032;-78
2021/04/23 09:11:43;;;;;;;15.38;8.60;;;384.60;1100.80;;;;;;5094508;28;20020;-76
2021/04/23 09:14:15;;;;;;;14.57;8.05;;;384.50;1049.60;;;;;;5092915;28;20020;-78
2021/04/23 09:16:44;;;;;;;21.85;8.25;;;384.40;1100.80;;;;;;5094084;28;20486;-76
2021/04/23 09:19:30;;;;;;;17.40;7.22;;;384.60;1100.80;;;;;;5093808;28;20032;-78
2021/04/23 09:22:29;;;;;;;18.70;8.02;;;409.60;1126.40;;;;;;5095220;28;20047;-75
2021/04/23 09:25:08;;;;;;;15.77;8.07;;;409.70;1075.20;;;;;;5032179;28;20572;-76
2021/04/23 09:27:37;;;;;;;17.55;7.95;;;409.90;1100.80;;;;;;5031246;28;20033;-76
2021/04/23 09:30:08;;;;;;;16.92;8.88;;;410.00;1075.20;;;;;;5015637;28;20184;-75
2021/04/23 09:32:38;;;;;;;17.08;8.23;;;409.90;1100.80;;;;;;5032205;28;20033;-76
2021/04/23 09:35:17;;;;;;;15.50;8.82;;;409.90;1100.80;;;;;;5032080;28;20087;-79
2021/04/23 09:37:53;;;;;;;19.65;9.07;;;409.80;1100.80;;;;;;5026571;28;20037;-77
2021/04/23 09:40:28;;;;;;;15.13;8.18;;;410.10;1075.20;;;;;;5015377;28;20056;-77
2021/04/23 09:42:56;;;;;;;16.98;7.82;;;410.10;1075.20;;;;;;5032083;28;20076;-77
2021/04/23 09:45:28;;;;;;;18.38;8.45;;;410.10;1024.00;;;;;;5012057;28;20065;-79
2021/04/23 09:47:54;;;;;;;14.50;7.95;;;410.10;1049.60;;;;;;5018303;28;20034;-78
2021/04/23 09:50:21;;;;;;;17.67;7.93;;;410.20;1024.00;;;;;;5012199;28;20212;-78
2021/04/23 09:52:55;;;;;;;17.35;8.43;;;410.20;1049.60;;;;;;4995418;28;20033;-77
2021/04/23 09:55:23;;;;;;;13.95;7.72;;;410.50;1024.00;;;;;;4995526;28;20037;-76
2021/04/23 09:58:02;;;;;;;17.92;7.82;;;435.30;1049.60;;;;;;4994855;28;20042;-77
2021/04/23 10:00:31;;;;;;;18.08;8.52;;;435.60;1024.00;;;;;;5021420;28;20071;-77
2021/04/23 10:02:59;;;;;;;14.10;7.80;;;436.10;972.80;;;;;;5074014;28;20019;-78
2021/04/23 10:05:34;;;;;;;13.80;7.72;;;435.90;972.80;;;;;;5094093;28;20500;-77
2021/04/23 10:08:06;;;;;;;19.52;10.05;;;435.90;1024.00;;;;;;5094108;28;20028;-77
2021/04/23 10:10:32;;;;;;;19.90;8.05;;;436.10;998.40;;;;;;5092452;28;20047;-79
2021/04/23 10:13:05;;;;;;;16.58;8.07;;;461.00;972.80;;;;;;5093829;28;20472;-79
2021/04/23 10:15:37;;;;;;;16.70;7.80;;;460.90;947.20;;;;;;5091657;28;20024;-79
2021/04/23 10:18:06;;;;;;;15.25;7.55;;;436.10;921.60;;;;;;5093753;28;20052;-80
2021/04/23 10:20:38;;;;;;;13.90;7.85;;;461.00;947.20;;;;;;5093908;28;20053;-78
2021/04/23 10:23:08;;;;;;;15.10;7.97;;;460.80;921.60;;;;;;5092422;28;20169;-75
2021/04/23 10:25:35;;;;;;;19.73;8.65;;;461.40;947.20;;;;;;5093700;28;20024;-80
2021/04/23 10:28:04;;;;;;;14.32;7.82;;;461.00;921.60;;;;;;5093301;28;20105;-78
2021/04/23 10:30:32;;;;;;;19.00;7.70;;;460.90;921.60;;;;;;5092810;28;20028;-77
2021/04/23 10:33:01;;;;;;;15.75;9.30;;;;;;;;;;5093139;28;20046;-78
2021/04/23 10:35:29;;;;;;;19.02;8.13;;;461.70;921.60;;;;;;5090056;28;20028;-78
2021/04/23 10:38:06;;;;;;;18.42;8.57;;;461.40;947.20;;;;;;5091354;28;20024;-76
2021/04/23 10:40:33;;;;;;;21.50;8.90;;;461.50;921.60;;;;;;5088713;28;21392;-76
2021/04/23 10:43:09;;;;;;;14.25;7.88;;;461.60;947.20;;;;;;5098649;28;20399;-76
2021/04/23 10:45:40;;;;;;;13.40;7.75;;;461.40;947.20;;;;;;5089957;28;20032;-76
2021/04/23 10:48:28;;;;;;;18.27;8.48;;;461.20;972.80;;;;;;5092575;28;20028;-76
2021/04/23 10:50:57;;;;;;;14.80;7.70;;;461.30;921.60;;;;;;5090762;28;20035;-77
2021/04/23 10:53:26;;;;;;;17.77;8.82;;;461.10;947.20;;;;;;5092682;28;20085;-75
2021/04/23 10:56:00;;;;;;;13.98;7.60;;;461.50;896.00;;;;;;5091100;28;20039;-77
2021/04/23 10:58:26;;;;;;;17.80;7.07;;;461.30;921.60;;;;;;5092403;28;20115;-76
2021/04/23 11:00:54;;;;;;;13.77;7.95;;;461.50;896.00;;;;;;5092240;28;20479;-76
2021/04/23 11:03:20;;;;;;;16.08;6.65;;;461.50;921.60;;;;;;5092207;28;20037;-76
2021/04/23 11:05:47;;;;;;;16.95;7.28;;;461.50;870.40;;;;;;5092535;28;20517;-76
2021/04/23 11:08:13;;;;;;;15.05;7.50;;;486.40;819.20;;;;;;5092357;28;20194;-82
2021/04/23 11:11:22;;;;;;;11.82;7.38;;;486.50;844.80;;;;;;5090428;28;20438;-78
2021/04/23 11:13:47;;;;;;;;;;;461.70;870.40;;;;;;5091972;28;20020;-81
2021/04/23 11:16:25;;;;;;;12.30;7.38;;;486.60;870.40;;;;;;5089369;28;19904;-79
2021/04/23 11:18:55;;;;;;;15.65;7.28;;;486.70;896.00;;;;;;5092047;28;20024;-78
2021/04/23 11:21:27;;;;;;;22.65;7.80;;;486.70;844.80;;;;;;5090926;28;20020;-76
2021/04/23 11:24:31;;;;;;;13.25;7.22;;;486.40;819.20;;;;;;5089666;28;20021;-77
2021/04/23 11:27:07;;;;;;;11.20;6.35;;;486.80;844.80;;;;;;5089722;28;20040;-77
2021/04/23 11:29:35;;;;;;;21.65;7.80;;;487.10;819.20;;;;;;5088020;28;20044;-78
2021/04/23 11:32:10;;;;;;;15.82;6.90;;;512.00;793.60;;;;;;5091803;28;20031;-76
2021/04/23 11:34:40;;;;;;;13.60;7.10;;;487.10;819.20;;;;;;5089726;28;20020;-76
2021/04/23 11:37:10;;;;;;;14.88;6.72;;;487.20;844.80;;;;;;5091773;28;20487;-79
2021/04/23 11:39:42;;;;;;;15.82;7.05;;;487.00;844.80;;;;;;5089707;28;20035;-78
2021/04/23 11:42:09;;;;;;;16.38;7.28;;;487.20;819.20;;;;;;5091997;28;20102;-77
2021/04/23 11:45:05;;;;;;;15.60;7.07;;;487.30;870.40;;;;;;5091745;28;20024;-78
2021/04/23 11:47:34;;;;;;;14.25;6.88;;;487.30;793.60;;;;;;5091502;28;20027;-79
2021/04/23 11:50:34;;;;;;;18.83;5.97;;;486.80;819.20;;;;;;5091585;28;20040;-79
2021/04/23 11:53:04;;;;;;;13.18;6.20;;;486.70;844.80;;;;;;5092131;28;20024;-77
2021/04/23 11:55:32;;;;;;;13.32;6.03;;;486.90;819.20;;;;;;5091985;28;20043;-79
2021/04/23 11:58:09;;;;;;;15.70;7.30;;;486.80;819.20;;;;;;5091929;28;20028;-78
2021/04/23 12:00:43;;;;;;;13.90;6.43;;;512.00;768.00;;;;;;5091971;28;20517;-79
2021/04/23 12:03:11;;;;;;;10.65;5.20;;;487.00;819.20;;;;;;5090839;28;20035;-76
2021/04/23 12:05:37;;;;;;;13.75;6.03;;;486.80;768.00;;;;;;5070545;28;20028;-78
2021/04/23 12:08:12;;;;;;;12.98;5.50;;;486.80;768.00;;;;;;5071746;28;20103;-78
2021/04/23 12:10:48;;;;;;;12.18;4.72;;;487.10;768.00;;;;;;5072088;28;20059;-78
2021/04/23 12:13:25;;;;;;;14.20;5.60;;;487.00;742.40;;;;;;5089233;28;20020;-84
2021/04/23 12:15:57;;;;;;;12.98;5.13;;;487.00;793.60;;;;;;5089867;28;20040;-79